Giltner, NE (68841)

9:27 AM CST on January 21, 2017 (GMT -0600)
Hamilton County EMA | | Change Station
Active Advisory: Flood Warning Active Notice: Record Report

Elev 1791 ft 40.87 °N, 98.00 °W | Updated 9 minutes ago

Partly Cloudy
Partly Cloudy
35.9 °F
Feels Like 36 °F
N
1.0
Wind Variable Wind from WNW
Gusts 9.0 mph

Today
High -- | Low -- °F
--% Chance of Precip.
Yesterday
High -- | Low -- °F
Precip. -- in
Pressure 29.44 in
Visibility 10.0 miles
Clouds Overcast 5000 ft
Windchill 36 °F
Dew Point 35 °F
Humidity 96%
Rainfall 0.00 in
Snow Depth Not available.
7:51 AM 5:37 PM
Waning Crescent, 34% visible
METAR KAUH 211515Z AUTO 26005KT 10SM OVC050 01/01 A2944 RMK AO2 T00120012
Pressure 29.44 in
Visibility 10.0 miles
Clouds Overcast 5000 ft
Windchill 36 °F
Dew Point 35 °F
Humidity 96%
Rainfall 0.00 in
Snow Depth Not available.
7:51 AM 5:37 PM
Waning Crescent, 34% visible
METAR KAUH 211515Z AUTO 26005KT 10SM OVC050 01/01 A2944 RMK AO2 T00120012

Get Your Daily Forecast Email!

Thanks for signing up!

Be on the lookout for a verification email in your inbox.

You'll start receiving the daily forecast at 8 AM.

×

10-Day Weather Forecast

Almanac

Astronomy

Jan. 21, 2017 Rise Set
Actual Time
Civil Twilight
Nautical Twilight
Astronomical Twilight
Moon
Length of Visible Light
Length of Day
Tomorrow will be .
, % of the Moon is Illuminated

Today's Extremes

State Highs State Lows

Community

WunderPhotos

Upload Photos

1,962,540 photos uploaded!

WunderBlog® & News

Nearby

Air Quality

  Air Quality AQ Index Pollutant
Not available.

Snow Depth

Station Depth Elevation

Earthquake Activity

City Distance Mag. Time & Date
Minimum magnitude displayed is 2.5.

Coastal Water Temperatures

Place Temperature

Stations

Nearby Weather Stations

Station Location Temp. Windchill Dew Point Humidity Wind Precip. Elev Updated Type
                   

Watches & Warnings

Flood Warning
Issued: 8:34 AM CST Jan. 21, 2017 – National Weather Service

The Flood Warning continues for
the Platte River near Grand Island.
* At 8:15 am Saturday the stage was 6.4 feet.
* Flood stage is 6.5 feet.
* Minor flooding is forecast.
* Forecast... rise above flood stage this afternoon and reach
6.6 feet this evening. The river will fall below
flood stage Sunday afternoon.
* At 6.5 feet... rural farms and pasturelands flood.


Lat... Lon 4083 9839 4121 9782 4116 9782 4079 9833